Time;durP1;ratioP1;P1;durP2;ratioP2;P2;SDS_P1;SDS_P2;PMS_P1;PMS_P2;Temp;Humidity;BMP_temperature;BMP_pressure;BME280_temperature;BME280_humidity;BME280_pressure;Samples;Min_cycle;Max_cycle;Signal;HPM_P1;HPM_P2
2022/07/11 00:00:45;;;;;;;0.90;0.90;;;21.70;96.30;;;;;;5041975;28;20190;-75
2022/07/11 00:03:12;;;;;;;0.70;0.70;;;21.70;96.40;;;;;;5045466;28;20202;-75
2022/07/11 00:06:17;;;;;;;0.73;0.73;;;21.70;96.30;;;;;;5048103;28;20202;-76
2022/07/11 00:09:30;;;;;;;1.13;0.90;;;21.60;96.70;;;;;;5054504;28;20215;-75
2022/07/11 00:11:57;;;;;;;2.65;0.88;;;21.60;96.90;;;;;;5050946;28;20270;-75
2022/07/11 00:14:25;;;;;;;0.75;0.75;;;21.50;96.80;;;;;;5052929;28;20203;-76
2022/07/11 00:16:54;;;;;;;0.70;0.70;;;21.50;96.80;;;;;;5063174;28;20215;-76
2022/07/11 00:19:22;;;;;;;0.70;0.70;;;21.50;96.80;;;;;;5053137;28;20191;-77
2022/07/11 00:21:49;;;;;;;0.80;0.80;;;21.50;96.70;;;;;;5039882;28;20199;-76
2022/07/11 00:24:26;;;;;;;0.80;0.80;;;21.50;96.70;;;;;;5034420;28;20210;-76
2022/07/11 00:30:16;;;;;;;0.93;0.93;;;21.50;96.80;;;;;;5053889;28;20246;-76
2022/07/11 00:32:44;;;;;;;0.75;0.75;;;21.50;96.80;;;;;;5048721;28;20199;-75
2022/07/11 00:35:12;;;;;;;0.70;0.70;;;21.40;96.90;;;;;;5051215;28;20195;-76
2022/07/11 00:41:51;;;;;;;0.82;0.82;;;21.30;97.50;;;;;;5040081;28;20226;-76
2022/07/11 00:47:44;;;;;;;0.80;0.80;;;21.20;97.40;;;;;;5035091;28;20245;-76
2022/07/11 00:50:11;;;;;;;0.80;0.80;;;21.20;97.40;;;;;;5043015;28;20230;-75
2022/07/11 00:52:38;;;;;;;0.63;0.63;;;21.30;97.40;;;;;;5050345;28;20619;-75
2022/07/11 00:58:55;;;;;;;0.70;0.70;;;21.10;97.70;;;;;;5046089;28;20229;-76
2022/07/11 01:01:23;;;;;;;0.88;0.88;;;21.10;97.80;;;;;;5059607;28;20202;-74
2022/07/11 01:03:51;;;;;;;0.90;0.90;;;21.10;97.60;;;;;;5044121;28;20202;-74
2022/07/11 01:06:18;;;;;;;0.73;0.73;;;21.10;97.70;;;;;;5043370;28;20594;-76
2022/07/11 01:08:45;;;;;;;0.90;0.90;;;21.00;97.70;;;;;;5066082;28;20230;-77
2022/07/11 01:11:15;;;;;;;0.77;0.77;;;21.10;97.70;;;;;;5047653;28;20199;-76
2022/07/11 01:13:43;;;;;;;0.80;0.80;;;21.10;97.70;;;;;;5042842;28;20237;-75
2022/07/11 01:19:34;;;;;;;0.93;0.93;;;21.00;97.90;;;;;;5049898;28;20293;-74
2022/07/11 01:22:05;;;;;;;0.77;0.77;;;21.00;97.90;;;;;;5051129;28;20217;-77
2022/07/11 01:24:34;;;;;;;0.82;0.82;;;20.90;97.90;;;;;;5045964;28;20191;-74
2022/07/11 01:27:02;;;;;;;0.70;0.70;;;21.00;98.00;;;;;;5047426;28;20215;-77
2022/07/11 01:29:35;;;;;;;0.60;0.60;;;20.90;98.00;;;;;;5050112;28;20369;-76
2022/07/11 01:35:33;;;;;;;0.82;0.82;;;20.90;98.40;;;;;;5044224;28;20614;-76
2022/07/11 01:38:00;;;;;;;0.70;0.70;;;20.90;98.20;;;;;;5037789;28;20218;-76
2022/07/11 01:40:29;;;;;;;0.85;0.82;;;20.80;98.20;;;;;;5052550;28;20699;-76
2022/07/11 01:42:56;;;;;;;1.15;1.10;;;20.80;98.40;;;;;;5049685;28;20214;-75
2022/07/11 01:45:23;;;;;;;0.80;0.80;;;20.80;98.40;;;;;;5051881;28;20199;-75
2022/07/11 02:01:20;;;;;;;0.98;0.98;;;20.70;98.90;;;;;;5052544;28;20309;-76
2022/07/11 02:03:47;;;;;;;0.90;0.90;;;20.60;98.70;;;;;;5047995;28;20195;-76
2022/07/11 02:06:14;;;;;;;0.90;0.90;;;20.60;98.80;;;;;;5045444;28;20705;-75
2022/07/11 02:08:42;;;;;;;0.90;0.90;;;20.60;98.80;;;;;;5042244;28;20202;-77
2022/07/11 02:11:09;;;;;;;0.80;0.80;;;20.60;98.90;;;;;;5043462;28;20199;-75
2022/07/11 02:17:33;;;;;;;0.80;0.80;;;20.60;99.30;;;;;;5040331;28;20249;-74
2022/07/11 02:20:00;;;;;;;0.93;0.93;;;20.60;99.20;;;;;;5054790;28;20195;-76
2022/07/11 02:22:29;;;;;;;1.20;1.10;;;20.60;99.00;;;;;;5054477;28;20199;-77
2022/07/11 02:24:56;;;;;;;0.90;0.90;;;20.60;99.00;;;;;;5047216;28;20210;-75
2022/07/11 02:27:23;;;;;;;0.95;0.95;;;20.60;99.00;;;;;;5045844;28;20310;-75
2022/07/11 02:29:50;;;;;;;0.88;0.88;;;20.50;99.10;;;;;;5047772;28;20223;-75
2022/07/11 02:32:18;;;;;;;0.80;0.80;;;20.50;99.10;;;;;;5048658;28;20203;-77
2022/07/11 02:34:46;;;;;;;0.80;0.80;;;20.50;99.10;;;;;;5054123;28;20656;-75
2022/07/11 02:37:13;;;;;;;0.63;0.63;;;20.50;99.10;;;;;;5052011;28;20789;-77
2022/07/11 02:39:40;;;;;;;0.93;0.93;;;20.40;99.20;;;;;;5051932;28;20199;-76
2022/07/11 02:42:29;;;;;;;0.98;0.90;;;20.40;99.30;;;;;;5049171;28;20200;-76
2022/07/11 02:44:56;;;;;;;1.17;0.90;;;20.40;99.60;;;;;;5049694;28;20196;-76
2022/07/11 02:47:23;;;;;;;1.20;1.10;;;20.40;99.40;;;;;;5044892;28;20219;-75
2022/07/11 02:49:52;;;;;;;1.17;1.08;;;20.40;99.90;;;;;;5041422;28;22695;-75
2022/07/11 02:52:19;;;;;;;0.90;0.90;;;20.40;99.50;;;;;;5067678;28;20249;-76
2022/07/11 02:54:46;;;;;;;1.13;1.00;;;20.30;99.50;;;;;;5038308;28;20298;-75
2022/07/11 03:00:45;;;;;;;0.90;0.90;;;20.30;99.90;;;;;;5043889;28;20185;-78
2022/07/11 03:06:35;;;;;;;1.00;1.00;;;20.20;99.90;;;;;;5056761;28;20210;-77
2022/07/11 03:09:02;;;;;;;1.23;1.10;;;20.20;99.80;;;;;;5043901;28;20199;-77
2022/07/11 03:11:29;;;;;;;0.90;0.90;;;20.20;99.90;;;;;;5055260;28;20203;-77
2022/07/11 03:13:56;;;;;;;1.02;0.98;;;20.20;99.90;;;;;;5046217;28;20546;-76
2022/07/11 03:16:23;;;;;;;1.20;1.20;;;20.20;99.90;;;;;;5054461;28;20229;-76
2022/07/11 03:18:51;;;;;;;1.00;1.00;;;20.20;99.90;;;;;;5051554;28;20689;-76
2022/07/11 03:25:09;;;;;;;0.90;0.90;;;20.10;99.90;;;;;;5051162;28;20210;-76
2022/07/11 03:31:07;;;;;;;0.80;0.80;;;20.00;99.90;;;;;;5054529;28;20749;-75
2022/07/11 03:33:34;;;;;;;0.80;0.80;;;20.00;99.90;;;;;;5049041;28;20195;-75
2022/07/11 03:41:54;;;;;;;0.95;0.90;;;19.90;99.90;;;;;;5015707;28;20223;-75
2022/07/11 03:44:21;;;;;;;1.02;0.88;;;19.90;99.90;;;;;;5021699;28;20195;-76
2022/07/11 03:50:10;;;;;;;1.58;0.82;;;19.90;99.90;;;;;;5024155;28;20266;-76
2022/07/11 03:52:37;;;;;;;0.90;0.90;;;19.90;99.90;;;;;;5024612;28;20204;-76
2022/07/11 03:55:11;;;;;;;0.90;0.90;;;19.90;99.90;;;;;;5020617;28;20275;-75
2022/07/11 04:01:29;;;;;;;1.00;0.90;;;19.90;99.90;;;;;;5022577;28;20299;-75
2022/07/11 04:03:56;;;;;;;0.90;0.90;;;19.90;99.90;;;;;;5020661;28;20196;-76
2022/07/11 04:06:23;;;;;;;0.90;0.90;;;19.80;99.90;;;;;;5022209;28;20192;-75
2022/07/11 04:08:50;;;;;;;0.93;0.93;;;19.80;99.90;;;;;;5017490;28;20206;-75
2022/07/11 04:11:17;;;;;;;1.58;1.00;;;19.90;99.90;;;;;;5020961;28;20228;-75
2022/07/11 04:13:44;;;;;;;1.08;1.08;;;19.90;99.90;;;;;;5024720;28;20196;-77
2022/07/11 04:19:38;;;;;;;1.00;1.00;;;20.00;99.90;;;;;;5023438;28;20191;-76
2022/07/11 04:22:05;;;;;;;1.05;0.95;;;20.10;99.90;;;;;;5023754;28;20196;-76
2022/07/11 04:25:09;;;;;;;0.90;0.90;;;20.20;99.90;;;;;;5029611;28;20371;-76
2022/07/11 04:27:36;;;;;;;1.50;1.08;;;20.30;99.90;;;;;;5023758;28;20871;-76
2022/07/11 04:30:04;;;;;;;0.90;0.90;;;20.30;99.90;;;;;;5010982;28;20626;-76
2022/07/11 04:32:31;;;;;;;0.80;0.80;;;20.40;99.90;;;;;;5019030;28;20546;-76
2022/07/11 04:38:22;;;;;;;0.90;0.90;;;20.50;99.90;;;;;;5016980;28;20211;-76
2022/07/11 04:40:50;;;;;;;0.90;0.90;;;20.60;99.90;;;;;;5024654;28;20258;-76
2022/07/11 04:43:17;;;;;;;0.98;0.82;;;20.60;99.90;;;;;;5025212;28;20204;-76
2022/07/11 04:49:26;;;;;;;1.15;1.10;;;20.60;99.90;;;;;;5017399;28;20227;-75
2022/07/11 04:55:55;;;;;;;1.25;1.15;;;20.80;99.90;;;;;;5024788;28;20207;-75
2022/07/11 04:58:22;;;;;;;0.90;0.90;;;20.90;99.90;;;;;;5021983;28;20196;-76
2022/07/11 05:01:42;;;;;;;1.73;1.00;;;21.00;99.90;;;;;;5026607;28;20719;-77
2022/07/11 05:04:55;;;;;;;1.10;1.00;;;21.10;99.90;;;;;;5028102;28;20293;-76
2022/07/11 05:07:22;;;;;;;1.25;1.17;;;21.20;99.90;;;;;;5030553;28;20207;-75
2022/07/11 05:13:13;;;;;;;1.15;1.15;;;21.40;99.90;;;;;;5032480;28;20174;-75
2022/07/11 05:15:40;;;;;;;1.45;1.35;;;21.20;99.90;;;;;;5028946;28;20200;-75
2022/07/11 05:18:07;;;;;;;1.50;1.40;;;21.00;99.90;;;;;;5032701;28;20689;-75
2022/07/11 05:20:34;;;;;;;1.00;1.00;;;20.90;99.90;;;;;;5032975;28;20211;-76
2022/07/11 05:23:01;;;;;;;1.10;1.10;;;20.90;99.90;;;;;;5025458;28;20253;-75
2022/07/11 05:25:29;;;;;;;1.30;1.20;;;20.90;99.90;;;;;;5033865;28;20199;-75
2022/07/11 05:31:19;;;;;;;1.95;1.60;;;21.00;99.90;;;;;;5024482;28;20231;-78
2022/07/11 05:33:46;;;;;;;1.48;1.38;;;20.90;99.90;;;;;;5016855;28;20200;-75
2022/07/11 05:36:13;;;;;;;1.98;1.48;;;21.00;99.90;;;;;;5024747;28;20231;-78
2022/07/11 05:38:40;;;;;;;1.40;1.30;;;21.10;99.90;;;;;;5025013;28;20204;-77
2022/07/11 05:41:07;;;;;;;1.40;1.30;;;21.00;99.90;;;;;;5030133;28;20220;-75
2022/07/11 05:43:35;;;;;;;1.40;1.30;;;20.90;99.90;;;;;;5030766;28;20278;-76
2022/07/11 05:46:06;;;;;;;1.08;1.08;;;20.90;99.90;;;;;;5031328;28;20739;-78
2022/07/11 05:48:34;;;;;;;1.55;1.30;;;21.00;99.90;;;;;;5032081;28;20196;-78
2022/07/11 05:51:01;;;;;;;1.40;1.30;;;21.00;99.90;;;;;;5026961;28;20224;-77
2022/07/11 05:53:28;;;;;;;1.50;1.40;;;21.10;99.90;;;;;;5029653;28;20219;-78
2022/07/11 05:55:55;;;;;;;1.30;1.20;;;21.20;99.90;;;;;;5035602;28;20215;-75
2022/07/11 05:58:22;;;;;;;2.08;1.33;;;21.30;99.90;;;;;;5035172;28;20598;-77
2022/07/11 06:00:49;;;;;;;1.35;1.27;;;21.30;99.90;;;;;;5027568;28;20216;-76
2022/07/11 06:03:16;;;;;;;1.48;1.38;;;21.40;99.90;;;;;;5038390;28;20304;-74
2022/07/11 06:05:45;;;;;;;1.98;1.40;;;21.50;99.90;;;;;;5028552;28;20196;-78
2022/07/11 06:10:56;;;;;;;1.95;1.30;;;21.70;99.90;;;;;;5026891;28;20230;-76
2022/07/11 06:13:25;;;;;;;1.42;1.33;;;21.80;99.90;;;;;;5015479;28;20593;-75
2022/07/11 06:15:52;;;;;;;2.35;1.48;;;21.80;99.90;;;;;;5014716;28;20222;-76
2022/07/11 06:18:20;;;;;;;1.75;1.20;;;21.80;99.90;;;;;;5012682;28;20228;-75
2022/07/11 06:20:49;;;;;;;1.60;1.42;;;21.80;99.90;;;;;;5014040;28;20252;-76
2022/07/11 06:23:16;;;;;;;1.63;1.52;;;21.80;99.90;;;;;;5011509;28;20221;-76
2022/07/11 06:25:43;;;;;;;1.60;1.50;;;21.80;99.90;;;;;;5012546;28;20825;-75
2022/07/11 06:28:10;;;;;;;2.97;1.48;;;21.90;99.90;;;;;;5017295;28;20246;-76
2022/07/11 06:30:37;;;;;;;2.67;1.58;;;21.90;99.90;;;;;;5008383;28;20223;-77
2022/07/11 06:33:04;;;;;;;1.40;1.30;;;22.00;99.90;;;;;;5016748;28;20290;-76
2022/07/11 06:35:31;;;;;;;2.25;1.60;;;22.00;99.90;;;;;;5011494;28;20662;-76
2022/07/11 06:38:00;;;;;;;1.85;1.40;;;22.20;99.90;;;;;;5011259;28;20215;-75
2022/07/11 06:40:27;;;;;;;2.30;1.45;;;22.30;99.90;;;;;;5011380;28;20706;-75
2022/07/11 06:42:54;;;;;;;2.33;1.60;;;22.30;99.90;;;;;;5006899;28;20274;-77
2022/07/11 06:45:21;;;;;;;1.58;1.48;;;22.40;99.90;;;;;;5011509;28;20197;-75
2022/07/11 06:47:48;;;;;;;1.77;1.65;;;22.40;99.90;;;;;;5020114;28;20227;-76
2022/07/11 06:50:15;;;;;;;3.03;1.50;;;22.50;99.90;;;;;;5009533;28;20652;-75
2022/07/11 06:52:42;;;;;;;1.58;1.48;;;22.60;99.90;;;;;;5012506;28;20220;-74
2022/07/11 06:55:11;;;;;;;1.40;1.30;;;22.60;99.90;;;;;;5006853;28;20618;-76
2022/07/11 06:57:38;;;;;;;1.77;1.67;;;22.70;99.90;;;;;;5011985;28;20216;-75
2022/07/11 07:00:07;;;;;;;3.17;1.70;;;22.70;99.90;;;;;;5012957;28;20212;-76
2022/07/11 07:02:34;;;;;;;1.58;1.48;;;22.80;99.90;;;;;;5008847;28;20219;-76
2022/07/11 07:05:01;;;;;;;1.70;1.50;;;22.80;99.90;;;;;;5007204;28;20215;-76
2022/07/11 07:07:29;;;;;;;1.50;1.40;;;22.90;99.90;;;;;;5007178;28;20701;-74
2022/07/11 07:09:56;;;;;;;1.35;1.25;;;23.10;99.90;;;;;;5010261;28;20239;-75
2022/07/11 07:12:25;;;;;;;1.50;1.40;;;23.10;99.90;;;;;;5005820;28;20225;-76
2022/07/11 07:14:52;;;;;;;1.38;1.27;;;23.30;99.90;;;;;;5009049;28;20196;-76
2022/07/11 07:17:19;;;;;;;1.60;1.50;;;23.50;99.90;;;;;;5008975;28;20231;-77
2022/07/11 07:19:46;;;;;;;1.60;1.50;;;23.60;99.90;;;;;;5011070;28;20216;-73
2022/07/11 07:22:15;;;;;;;1.40;1.30;;;23.50;99.90;;;;;;5004101;28;20229;-76
2022/07/11 07:24:43;;;;;;;1.40;1.30;;;23.50;99.90;;;;;;5007610;28;20672;-75
2022/07/11 07:27:11;;;;;;;2.47;1.40;;;23.60;99.90;;;;;;5012544;28;20315;-76
2022/07/11 07:29:39;;;;;;;1.63;1.52;;;23.60;99.90;;;;;;5013581;28;20224;-77
2022/07/11 07:32:07;;;;;;;2.47;1.50;;;23.70;99.90;;;;;;5008125;28;20224;-76
2022/07/11 07:34:34;;;;;;;1.33;1.30;;;23.90;99.90;;;;;;5009465;28;20196;-75
2022/07/11 07:37:01;;;;;;;1.60;1.50;;;24.00;99.90;;;;;;5004391;28;20207;-75
2022/07/11 07:39:28;;;;;;;2.72;1.30;;;23.90;99.90;;;;;;5008539;28;20279;-76
2022/07/11 07:41:55;;;;;;;2.05;1.40;;;24.20;99.90;;;;;;5008350;28;20192;-75
2022/07/11 07:44:22;;;;;;;1.30;1.20;;;24.30;99.90;;;;;;5012187;28;20200;-73
2022/07/11 07:46:51;;;;;;;2.30;1.50;;;24.30;99.90;;;;;;5009937;28;20204;-76
2022/07/11 07:49:18;;;;;;;1.92;1.73;;;24.50;99.90;;;;;;5012759;28;20212;-75
2022/07/11 07:51:45;;;;;;;1.48;1.38;;;24.60;99.90;;;;;;5012712;28;20217;-76
2022/07/11 07:54:13;;;;;;;1.50;1.40;;;24.70;99.90;;;;;;5023511;28;20196;-74
2022/07/11 07:56:40;;;;;;;3.65;1.45;;;24.70;99.90;;;;;;5009032;28;20204;-76
2022/07/11 07:59:08;;;;;;;1.60;1.50;;;24.70;99.90;;;;;;5010757;28;20230;-75
2022/07/11 08:01:38;;;;;;;1.70;1.60;;;24.80;99.80;;;;;;5008097;28;20219;-75
2022/07/11 08:04:08;;;;;;;1.52;1.40;;;24.90;99.70;;;;;;5011953;28;20596;-76
2022/07/11 08:06:36;;;;;;;2.00;1.33;;;24.80;99.20;;;;;;5004384;28;20208;-75
2022/07/11 08:09:05;;;;;;;1.50;1.40;;;24.80;99.30;;;;;;5007974;28;20231;-74
2022/07/11 08:11:33;;;;;;;1.77;1.60;;;24.80;99.60;;;;;;5006900;28;20231;-76
2022/07/11 08:14:02;;;;;;;1.60;1.50;;;25.00;99.50;;;;;;5011742;28;20220;-76
2022/07/11 08:16:30;;;;;;;1.50;1.40;;;25.20;99.60;;;;;;5004636;28;20291;-76
2022/07/11 08:18:57;;;;;;;1.50;1.40;;;25.30;99.30;;;;;;5005978;28;20227;-76
2022/07/11 08:21:26;;;;;;;1.10;1.10;;;25.40;99.40;;;;;;5012066;28;20211;-76
2022/07/11 08:23:54;;;;;;;1.58;1.42;;;25.60;99.50;;;;;;5008190;28;20670;-77
2022/07/11 08:26:21;;;;;;;2.03;1.60;;;25.90;99.80;;;;;;5011204;28;20879;-76
2022/07/11 08:28:48;;;;;;;1.40;1.30;;;26.10;98.40;;;;;;5018833;28;20224;-73
2022/07/11 08:31:15;;;;;;;1.70;1.60;;;26.00;98.50;;;;;;5008865;28;20697;-75
2022/07/11 08:33:42;;;;;;;2.90;1.55;;;26.00;98.40;;;;;;5007921;28;20319;-75
2022/07/11 08:36:10;;;;;;;1.42;1.27;;;26.00;98.50;;;;;;5006766;28;20204;-76
2022/07/11 08:38:39;;;;;;;2.80;1.50;;;26.00;98.40;;;;;;5009867;28;20295;-75
2022/07/11 08:41:06;;;;;;;1.50;1.40;;;26.10;98.00;;;;;;5010452;28;20220;-76
2022/07/11 08:43:33;;;;;;;1.60;1.50;;;26.10;98.20;;;;;;5005595;28;20212;-73
2022/07/11 08:46:01;;;;;;;1.60;1.50;;;26.20;98.10;;;;;;5004822;28;20247;-77
2022/07/11 08:48:28;;;;;;;1.80;1.70;;;26.20;98.20;;;;;;5007993;28;20620;-77
2022/07/11 08:50:56;;;;;;;1.73;1.63;;;26.20;97.90;;;;;;5005159;28;20228;-76
2022/07/11 08:53:23;;;;;;;1.38;1.27;;;26.10;98.10;;;;;;5006720;28;20576;-78
2022/07/11 08:55:51;;;;;;;1.50;1.38;;;26.20;97.80;;;;;;5005616;28;20200;-76
2022/07/11 08:58:19;;;;;;;1.48;1.35;;;26.30;97.80;;;;;;5002129;28;20306;-76
2022/07/11 09:00:46;;;;;;;1.33;1.20;;;26.40;97.50;;;;;;5000517;28;20222;-76
2022/07/11 09:03:17;;;;;;;1.40;1.30;;;26.40;97.40;;;;;;5006577;28;20220;-76
2022/07/11 09:05:44;;;;;;;1.50;1.40;;;26.70;97.10;;;;;;5005851;28;20623;-76
2022/07/11 09:08:11;;;;;;;1.60;1.50;;;26.80;96.80;;;;;;5003920;28;20217;-77
2022/07/11 09:10:40;;;;;;;1.60;1.50;;;26.80;96.30;;;;;;5009869;28;20220;-76
2022/07/11 09:13:10;;;;;;;1.10;1.10;;;26.80;95.40;;;;;;5006410;28;20232;-76
2022/07/11 09:15:40;;;;;;;1.40;1.30;;;26.80;95.50;;;;;;5015819;28;20205;-76
2022/07/11 09:18:31;;;;;;;1.95;1.20;;;26.90;95.30;;;;;;5008098;28;20220;-76
2022/07/11 09:26:32;;;;;;;1.20;1.08;;;27.30;94.80;;;;;;5013936;28;20199;-75
2022/07/11 09:29:03;;;;;;;1.73;1.00;;;27.40;94.50;;;;;;5015598;28;20220;-77
2022/07/11 09:31:32;;;;;;;1.33;1.23;;;27.40;93.90;;;;;;5007680;28;20223;-76
2022/07/11 09:34:05;;;;;;;1.42;1.27;;;27.30;94.20;;;;;;5006907;28;21676;-74
2022/07/11 09:36:37;;;;;;;1.27;1.17;;;27.30;94.70;;;;;;5005406;28;20254;-75
2022/07/11 09:39:05;;;;;;;1.30;1.20;;;27.30;94.90;;;;;;5004054;28;20601;-75
2022/07/11 09:41:34;;;;;;;1.08;1.00;;;27.30;94.90;;;;;;5030622;22;20229;-71
2022/07/11 09:44:17;;;;;;;1.27;1.23;;;27.40;94.90;;;;;;5040674;28;20242;-72
2022/07/11 09:46:46;;;;;;;1.50;1.40;;;27.80;95.50;;;;;;5040709;28;20207;-71
2022/07/11 09:49:14;;;;;;;1.50;1.38;;;27.70;94.40;;;;;;5044524;28;20277;-71
2022/07/11 09:51:42;;;;;;;1.23;1.13;;;27.80;94.70;;;;;;5042529;28;20234;-71
2022/07/11 09:54:11;;;;;;;2.05;1.23;;;27.90;94.70;;;;;;5040635;28;20219;-71
2022/07/11 09:56:43;;;;;;;6.75;1.50;;;28.30;94.60;;;;;;5040948;28;20840;-70
2022/07/11 09:59:12;;;;;;;1.38;1.27;;;28.30;94.20;;;;;;5040451;28;20585;-74
2022/07/11 10:01:41;;;;;;;1.35;1.00;;;28.20;94.60;;;;;;5044588;28;20599;-71
2022/07/11 10:04:10;;;;;;;1.88;1.10;;;28.20;94.30;;;;;;5037388;28;20222;-70
2022/07/11 10:06:39;;;;;;;1.35;1.17;;;28.20;94.90;;;;;;5041333;28;20207;-70
2022/07/11 10:09:07;;;;;;;1.17;1.13;;;28.40;94.60;;;;;;5038336;28;20221;-70
2022/07/11 10:11:35;;;;;;;1.33;1.23;;;28.40;94.50;;;;;;5043343;28;20814;-70
2022/07/11 10:14:04;;;;;;;2.65;1.17;;;28.40;94.50;;;;;;5045502;28;20274;-70
2022/07/11 10:16:49;;;;;;;1.63;1.30;;;28.20;94.60;;;;;;5041972;28;20199;-68
2022/07/11 10:19:34;;;;;;;1.30;1.00;;;28.20;95.30;;;;;;5042832;28;20292;-70
2022/07/11 10:22:11;;;;;;;1.20;1.13;;;28.40;95.20;;;;;;5034367;28;20223;-70
2022/07/11 10:24:48;;;;;;;2.15;1.25;;;28.80;95.40;;;;;;5044011;28;20667;-70
2022/07/11 10:27:26;;;;;;;4.25;1.60;;;28.90;96.20;;;;;;5045288;28;20225;-70
2022/07/11 10:29:54;;;;;;;1.63;1.42;;;29.00;95.00;;;;;;5038924;28;20229;-71
2022/07/11 10:32:22;;;;;;;1.00;1.00;;;29.10;95.20;;;;;;5039894;28;20234;-70
2022/07/11 10:35:08;;;;;;;1.55;1.45;;;29.20;94.70;;;;;;5045928;28;20428;-69
2022/07/11 10:37:49;;;;;;;2.03;1.50;;;29.30;94.60;;;;;;5046352;28;20218;-70
2022/07/11 10:40:16;;;;;;;1.15;1.10;;;29.20;94.00;;;;;;5040507;28;20194;-71
2022/07/11 10:42:43;;;;;;;1.30;1.20;;;29.00;94.30;;;;;;5038368;28;20606;-69
2022/07/11 10:45:12;;;;;;;0.90;0.90;;;29.00;94.20;;;;;;5043964;28;20206;-72
2022/07/11 10:47:44;;;;;;;1.30;1.20;;;29.00;94.50;;;;;;5048442;28;20658;-71
2022/07/11 10:50:35;;;;;;;3.08;1.17;;;29.10;94.30;;;;;;5047899;28;20687;-71
2022/07/11 10:53:09;;;;;;;2.55;1.40;;;29.20;93.50;;;;;;5046687;28;20348;-71
2022/07/11 10:55:40;;;;;;;1.40;1.30;;;29.20;93.10;;;;;;5048687;28;20594;-72
2022/07/11 10:58:11;;;;;;;1.88;1.10;;;29.10;93.70;;;;;;5032107;28;20240;-72
2022/07/11 11:00:38;;;;;;;1.10;1.00;;;29.30;93.90;;;;;;5047081;28;20359;-71
2022/07/11 11:03:08;;;;;;;1.08;1.08;;;29.50;93.40;;;;;;5037492;28;20277;-73
2022/07/11 11:05:53;;;;;;;1.98;1.13;;;29.70;92.40;;;;;;5053228;28;20230;-73
2022/07/11 11:08:46;;;;;;;1.23;1.13;;;29.80;92.50;;;;;;5042309;28;20254;-70
2022/07/11 11:11:41;;;;;;;1.40;1.30;;;29.80;91.80;;;;;;5050517;28;20194;-72
2022/07/11 11:14:30;;;;;;;2.45;1.20;;;29.80;92.80;;;;;;5036204;28;20229;-71
2022/07/11 11:17:35;;;;;;;1.25;1.10;;;29.90;92.50;;;;;;5044768;28;20233;-70
2022/07/11 11:20:06;;;;;;;1.95;1.20;;;30.00;92.20;;;;;;5042888;28;20203;-70
2022/07/11 11:22:33;;;;;;;1.40;1.30;;;30.00;92.00;;;;;;5047862;28;20377;-72
2022/07/11 11:25:01;;;;;;;1.10;1.10;;;30.00;92.60;;;;;;5045129;28;20195;-70
2022/07/11 11:27:28;;;;;;;2.45;1.30;;;29.90;92.30;;;;;;5042318;28;20225;-72
2022/07/11 11:29:56;;;;;;;1.60;1.10;;;29.90;92.20;;;;;;5040324;28;20205;-71
2022/07/11 11:32:30;;;;;;;4.43;1.15;;;30.00;91.90;;;;;;5041527;28;20227;-70
2022/07/11 11:34:58;;;;;;;1.75;1.02;;;30.10;91.90;;;;;;5042015;28;20719;-70
2022/07/11 11:37:26;;;;;;;1.25;1.15;;;30.20;91.50;;;;;;5041429;28;20229;-71
2022/07/11 11:39:59;;;;;;;1.30;1.20;;;30.30;91.30;;;;;;5043362;28;20195;-70
2022/07/11 11:42:28;;;;;;;1.38;1.05;;;30.20;91.20;;;;;;5044057;28;20304;-68
2022/07/11 11:44:58;;;;;;;1.25;1.15;;;30.30;91.00;;;;;;5048340;28;20195;-71
2022/07/11 11:47:26;;;;;;;1.98;1.30;;;30.30;90.50;;;;;;5044233;28;20227;-70
2022/07/11 11:49:53;;;;;;;1.42;1.30;;;30.40;90.70;;;;;;5047544;28;20203;-71
2022/07/11 11:52:21;;;;;;;2.15;1.50;;;30.40;90.60;;;;;;5039616;28;20241;-72
2022/07/11 11:54:55;;;;;;;2.75;1.60;;;30.50;90.60;;;;;;5048288;28;20271;-71
2022/07/11 11:57:24;;;;;;;2.45;1.17;;;30.60;90.10;;;;;;5048203;28;21053;-68
2022/07/11 11:59:52;;;;;;;0.90;0.85;;;30.90;90.70;;;;;;5050153;28;20195;-71
2022/07/11 12:02:24;;;;;;;0.95;0.95;;;30.90;89.60;;;;;;5047489;28;20226;-71
2022/07/11 12:04:51;;;;;;;1.95;0.93;;;31.00;89.90;;;;;;5048086;28;20273;-70
2022/07/11 12:07:24;;;;;;;1.30;0.90;;;31.00;89.50;;;;;;5045843;28;20281;-71
2022/07/11 12:09:55;;;;;;;1.20;1.00;;;31.10;87.90;;;;;;5047904;28;20201;-71
2022/07/11 12:15:26;;;;;;;1.92;1.10;;;31.00;88.30;;;;;;5053664;28;20689;-71
2022/07/11 12:17:59;;;;;;;1.65;1.30;;;31.20;87.60;;;;;;5040207;28;20309;-70
2022/07/11 12:20:42;;;;;;;1.25;1.00;;;31.20;88.20;;;;;;5038761;28;20194;-71
2022/07/11 12:23:11;;;;;;;2.45;1.00;;;31.30;89.00;;;;;;5044401;28;20704;-69
2022/07/11 12:25:40;;;;;;;2.33;1.17;;;31.30;88.30;;;;;;5048327;28;20194;-72
2022/07/11 12:28:09;;;;;;;2.20;1.15;;;31.30;87.80;;;;;;5045278;28;20222;-68
2022/07/11 12:30:37;;;;;;;1.35;1.02;;;31.30;86.70;;;;;;5047626;28;20274;-70
2022/07/11 12:33:10;;;;;;;1.75;0.80;;;31.20;87.40;;;;;;5052233;28;20218;-70
2022/07/11 12:35:37;;;;;;;1.30;1.20;;;31.30;87.10;;;;;;5042089;28;20230;-70
2022/07/11 12:38:05;;;;;;;1.25;0.90;;;31.40;86.30;;;;;;5045540;28;20219;-71
2022/07/11 12:40:32;;;;;;;0.88;0.88;;;31.50;86.60;;;;;;5047436;28;20264;-70
2022/07/11 12:44:56;;;;;;;1.30;1.13;;;31.50;86.40;;;;;;5048774;28;20279;-69
2022/07/11 12:46:01;;;;;;;1.55;1.10;;;31.50;86.80;;;;;;5050616;28;20264;-69
2022/07/11 12:48:39;;;;;;;3.13;1.45;;;31.50;86.80;;;;;;5043684;28;20217;-69
2022/07/11 12:51:06;;;;;;;1.63;1.15;;;31.40;87.70;;;;;;5042871;28;20221;-69
2022/07/11 12:53:33;;;;;;;1.38;1.23;;;31.40;86.80;;;;;;5044642;28;20215;-69
2022/07/11 12:56:00;;;;;;;1.15;0.95;;;31.40;87.00;;;;;;5046987;28;20194;-69
2022/07/11 12:58:38;;;;;;;1.10;1.00;;;31.40;87.20;;;;;;5039118;28;20225;-70
2022/07/11 13:01:06;;;;;;;1.45;1.23;;;31.40;87.90;;;;;;5046428;28;20201;-68
2022/07/11 13:03:34;;;;;;;3.00;1.25;;;31.40;88.30;;;;;;5045893;28;20720;-71
2022/07/11 13:06:03;;;;;;;2.65;1.20;;;31.40;88.10;;;;;;5047883;28;20585;-70
2022/07/11 13:08:45;;;;;;;3.78;1.20;;;31.30;89.10;;;;;;5039593;28;20234;-70
2022/07/11 13:11:13;;;;;;;1.85;1.40;;;31.20;89.60;;;;;;5047065;28;20275;-71
2022/07/11 13:13:42;;;;;;;2.63;1.30;;;30.90;88.80;;;;;;5043338;28;20629;-71
2022/07/11 13:16:10;;;;;;;1.00;1.00;;;30.70;87.80;;;;;;5049650;28;20191;-70
2022/07/11 13:18:37;;;;;;;1.52;1.00;;;30.70;90.00;;;;;;5044927;28;20230;-72
2022/07/11 13:21:06;;;;;;;1.98;1.52;;;30.80;89.90;;;;;;5041931;28;20207;-74
2022/07/11 13:23:33;;;;;;;1.92;1.10;;;30.80;90.80;;;;;;5043913;28;20222;-72
2022/07/11 13:26:01;;;;;;;1.40;1.13;;;30.80;90.00;;;;;;5041286;28;20286;-71
2022/07/11 13:28:28;;;;;;;1.95;1.42;;;30.50;90.10;;;;;;5044610;28;20279;-71
2022/07/11 13:30:57;;;;;;;2.45;1.20;;;30.40;90.50;;;;;;5043066;28;20198;-69
2022/07/11 13:33:24;;;;;;;2.45;1.33;;;30.50;90.60;;;;;;5044054;28;20237;-71
2022/07/11 13:35:53;;;;;;;1.42;1.33;;;30.40;90.60;;;;;;5046659;28;20198;-72
2022/07/11 13:38:20;;;;;;;2.70;1.33;;;30.30;90.70;;;;;;5047071;28;20222;-73
2022/07/11 13:40:48;;;;;;;2.67;1.30;;;30.60;91.50;;;;;;5045546;28;20203;-71
2022/07/11 13:43:16;;;;;;;2.08;1.38;;;30.60;90.80;;;;;;5045671;28;20705;-73
2022/07/11 13:45:44;;;;;;;1.92;1.40;;;30.40;90.60;;;;;;5044588;28;20209;-71
2022/07/11 13:48:13;;;;;;;1.27;1.17;;;30.40;91.10;;;;;;5044311;28;20245;-71
2022/07/11 13:50:42;;;;;;;1.80;1.20;;;30.30;91.30;;;;;;5046477;28;20207;-70
2022/07/11 13:53:09;;;;;;;3.33;1.40;;;30.30;91.50;;;;;;5049061;28;20837;-69
2022/07/11 13:55:36;;;;;;;1.63;1.17;;;30.20;91.30;;;;;;5050675;28;20202;-72
2022/07/11 13:58:03;;;;;;;5.22;1.45;;;30.10;91.50;;;;;;5045151;28;20295;-72
2022/07/11 14:00:32;;;;;;;2.58;1.50;;;30.00;90.90;;;;;;5047303;28;20206;-70
2022/07/11 14:02:59;;;;;;;2.67;1.58;;;29.80;91.40;;;;;;5049397;28;20707;-71
2022/07/11 14:05:27;;;;;;;2.80;1.70;;;29.80;91.70;;;;;;5050830;28;20207;-69
2022/07/11 14:07:55;;;;;;;2.10;1.33;;;29.70;92.10;;;;;;5041827;28;20210;-69
2022/07/11 14:10:24;;;;;;;1.85;1.50;;;29.60;92.00;;;;;;5049887;28;20214;-70
2022/07/11 14:12:51;;;;;;;2.65;1.38;;;29.70;92.10;;;;;;5052530;28;20243;-69
2022/07/11 14:15:18;;;;;;;1.88;1.50;;;29.80;92.30;;;;;;5051793;28;20210;-69
2022/07/11 14:17:45;;;;;;;1.67;1.58;;;30.00;92.70;;;;;;5047023;28;20239;-70
2022/07/11 14:20:13;;;;;;;2.45;1.70;;;30.00;92.30;;;;;;5046359;28;20249;-72
2022/07/11 14:22:41;;;;;;;2.60;1.65;;;29.80;92.20;;;;;;5046380;28;20242;-70
2022/07/11 14:25:09;;;;;;;2.60;1.55;;;29.70;92.70;;;;;;5047977;28;20199;-71
2022/07/11 14:27:37;;;;;;;2.05;1.70;;;29.70;93.40;;;;;;5045607;28;20296;-70
2022/07/11 14:30:05;;;;;;;3.05;1.95;;;29.70;92.80;;;;;;5051552;28;20300;-72
2022/07/11 14:32:32;;;;;;;2.45;1.92;;;29.70;93.30;;;;;;5051750;28;20222;-70
2022/07/11 14:35:00;;;;;;;2.08;1.88;;;29.70;93.40;;;;;;5042106;28;20210;-70
2022/07/11 14:37:27;;;;;;;2.97;2.45;;;29.80;93.40;;;;;;5050025;28;20311;-71
2022/07/11 14:39:55;;;;;;;2.10;1.90;;;29.80;93.30;;;;;;5051876;28;20214;-70